sensor_id;sensor_type;location;lat;lon;timestamp;pressure;altitude;pressure_sealevel;temperature;humidity
30421;BME280;17218;54.070;10.012;2023-04-22T00:00:34;101233.44;;;8.45;100.00
30421;BME280;17218;54.070;10.012;2023-04-22T00:03:01;101226.56;;;8.49;100.00
30421;BME280;17218;54.070;10.012;2023-04-22T00:05:29;101223.19;;;8.53;100.00
30421;BME280;17218;54.070;10.012;2023-04-22T00:07:57;101209.38;;;8.48;100.00
30421;BME280;17218;54.070;10.012;2023-04-22T00:10:23;101214.50;;;8.45;100.00
30421;BME280;17218;54.070;10.012;2023-04-22T00:12:50;101211.97;;;8.53;100.00
30421;BME280;17218;54.070;10.012;2023-04-22T00:15:17;101208.41;;;8.40;100.00
30421;BME280;17218;54.070;10.012;2023-04-22T00:17:45;101217.09;;;8.45;100.00
30421;BME280;17218;54.070;10.012;2023-04-22T00:20:12;101205.03;;;8.44;100.00
30421;BME280;17218;54.070;10.012;2023-04-22T00:22:39;101206.72;;;8.42;100.00
30421;BME280;17218;54.070;10.012;2023-04-22T00:25:08;101195.53;;;8.41;100.00
30421;BME280;17218;54.070;10.012;2023-04-22T00:27:34;101191.94;;;8.27;100.00
30421;BME280;17218;54.070;10.012;2023-04-22T00:30:01;101189.34;;;8.25;100.00
30421;BME280;17218;54.070;10.012;2023-04-22T00:32:27;101173.88;;;8.25;100.00
30421;BME280;17218;54.070;10.012;2023-04-22T00:34:54;101184.16;;;8.22;100.00
30421;BME280;17218;54.070;10.012;2023-04-22T00:37:21;101174.72;;;8.22;100.00
30421;BME280;17218;54.070;10.012;2023-04-22T00:39:48;101167.88;;;8.28;100.00
30421;BME280;17218;54.070;10.012;2023-04-22T00:42:16;101169.66;;;8.33;100.00
30421;BME280;17218;54.070;10.012;2023-04-22T00:44:45;101161.91;;;8.32;100.00
30421;BME280;17218;54.070;10.012;2023-04-22T00:47:12;101171.38;;;8.34;100.00
30421;BME280;17218;54.070;10.012;2023-04-22T00:49:39;101163.63;;;8.36;100.00
30421;BME280;17218;54.070;10.012;2023-04-22T00:52:05;101159.34;;;8.33;100.00
30421;BME280;17218;54.070;10.012;2023-04-22T00:54:33;101153.28;;;8.31;100.00
30421;BME280;17218;54.070;10.012;2023-04-22T00:57:01;101153.28;;;8.28;100.00
30421;BME280;17218;54.070;10.012;2023-04-22T00:59:29;101141.19;;;8.29;100.00
30421;BME280;17218;54.070;10.012;2023-04-22T01:01:56;101152.38;;;8.26;100.00
30421;BME280;17218;54.070;10.012;2023-04-22T01:04:23;101150.66;;;8.27;100.00
30421;BME280;17218;54.070;10.012;2023-04-22T01:06:50;101146.38;;;8.30;100.00
30421;BME280;17218;54.070;10.012;2023-04-22T01:09:18;101147.22;;;8.28;100.00
30421;BME280;17218;54.070;10.012;2023-04-22T01:11:45;101142.88;;;8.22;100.00
30421;BME280;17218;54.070;10.012;2023-04-22T01:14:12;101140.22;;;8.16;100.00
30421;BME280;17218;54.070;10.012;2023-04-22T01:16:42;101138.59;;;8.22;100.00
30421;BME280;17218;54.070;10.012;2023-04-22T01:19:10;101134.25;;;8.20;100.00
30421;BME280;17218;54.070;10.012;2023-04-22T01:21:38;101125.63;;;8.16;100.00
30421;BME280;17218;54.070;10.012;2023-04-22T01:24:07;101126.56;;;8.25;100.00
30421;BME280;17218;54.070;10.012;2023-04-22T01:26:33;101129.09;;;8.20;100.00
30421;BME280;17218;54.070;10.012;2023-04-22T01:29:01;101130.72;;;8.10;100.00
30421;BME280;17218;54.070;10.012;2023-04-22T01:31:28;101127.22;;;8.05;100.00
30421;BME280;17218;54.070;10.012;2023-04-22T01:33:55;101120.34;;;8.02;100.00
30421;BME280;17218;54.070;10.012;2023-04-22T01:36:22;101125.50;;;8.04;100.00
30421;BME280;17218;54.070;10.012;2023-04-22T01:38:49;101119.44;;;7.98;100.00
30421;BME280;17218;54.070;10.012;2023-04-22T01:41:17;101120.34;;;8.02;100.00
30421;BME280;17218;54.070;10.012;2023-04-22T01:43:44;101116.00;;;8.01;100.00
30421;BME280;17218;54.070;10.012;2023-04-22T01:46:11;101115.19;;;8.02;100.00
30421;BME280;17218;54.070;10.012;2023-04-22T01:48:39;101113.38;;;7.93;100.00
30421;BME280;17218;54.070;10.012;2023-04-22T01:51:06;101111.72;;;7.98;100.00
30421;BME280;17218;54.070;10.012;2023-04-22T01:53:32;101116.00;;;8.01;100.00
30421;BME280;17218;54.070;10.012;2023-04-22T01:55:59;101111.72;;;8.02;100.00
30421;BME280;17218;54.070;10.012;2023-04-22T01:58:29;101108.28;;;8.01;100.00
30421;BME280;17218;54.070;10.012;2023-04-22T02:00:55;101097.88;;;7.92;100.00
30421;BME280;17218;54.070;10.012;2023-04-22T02:03:22;101104.78;;;7.93;100.00
30421;BME280;17218;54.070;10.012;2023-04-22T02:05:49;101094.38;;;7.88;100.00
30421;BME280;17218;54.070;10.012;2023-04-22T02:08:15;101090.13;;;7.92;100.00
30421;BME280;17218;54.070;10.012;2023-04-22T02:10:42;101097.88;;;7.92;100.00
30421;BME280;17218;54.070;10.012;2023-04-22T02:13:09;101090.16;;;7.93;100.00
30421;BME280;17218;54.070;10.012;2023-04-22T02:15:37;101089.25;;;7.90;100.00
30421;BME280;17218;54.070;10.012;2023-04-22T02:18:04;101079.78;;;7.87;100.00
30421;BME280;17218;54.070;10.012;2023-04-22T02:20:31;101090.97;;;7.89;100.00
30421;BME280;17218;54.070;10.012;2023-04-22T02:22:58;101085.75;;;7.84;100.00
30421;BME280;17218;54.070;10.012;2023-04-22T02:25:25;101086.63;;;7.85;100.00
30421;BME280;17218;54.070;10.012;2023-04-22T02:27:52;101084.06;;;7.85;100.00
30421;BME280;17218;54.070;10.012;2023-04-22T02:30:18;101075.41;;;7.81;100.00
30421;BME280;17218;54.070;10.012;2023-04-22T02:32:46;101080.56;;;7.80;100.00
30421;BME280;17218;54.070;10.012;2023-04-22T02:35:13;101071.97;;;7.79;100.00
30421;BME280;17218;54.070;10.012;2023-04-22T02:37:39;101066.00;;;7.85;100.00
30421;BME280;17218;54.070;10.012;2023-04-22T02:40:07;101064.22;;;7.81;100.00
30421;BME280;17218;54.070;10.012;2023-04-22T02:42:34;101065.09;;;7.78;100.00
30421;BME280;17218;54.070;10.012;2023-04-22T02:45:00;101059.94;;;7.78;100.00
30421;BME280;17218;54.070;10.012;2023-04-22T02:47:27;101057.25;;;7.67;100.00
30421;BME280;17218;54.070;10.012;2023-04-22T02:49:55;101048.66;;;7.70;100.00
30421;BME280;17218;54.070;10.012;2023-04-22T02:52:21;101046.13;;;7.74;100.00
30421;BME280;17218;54.070;10.012;2023-04-22T02:54:48;101037.53;;;7.74;100.00
30421;BME280;17218;54.070;10.012;2023-04-22T02:57:14;101038.41;;;7.74;100.00
30421;BME280;17218;54.070;10.012;2023-04-22T02:59:41;101030.59;;;7.68;100.00
30421;BME280;17218;54.070;10.012;2023-04-22T03:02:07;101027.06;;;7.58;100.00
30421;BME280;17218;54.070;10.012;2023-04-22T03:04:35;101031.41;;;7.62;100.00
30421;BME280;17218;54.070;10.012;2023-04-22T03:07:03;101027.13;;;7.63;100.00
30421;BME280;17218;54.070;10.012;2023-04-22T03:09:30;101016.78;;;7.60;100.00
30421;BME280;17218;54.070;10.012;2023-04-22T03:11:56;101023.69;;;7.66;100.00
30421;BME280;17218;54.070;10.012;2023-04-22T03:14:23;101021.88;;;7.57;100.00
30421;BME280;17218;54.070;10.012;2023-04-22T03:20:27;101001.25;;;7.57;100.00
30421;BME280;17218;54.070;10.012;2023-04-22T03:22:55;101004.72;;;7.59;100.00
30421;BME280;17218;54.070;10.012;2023-04-22T03:25:21;100997.00;;;7.60;100.00
30421;BME280;17218;54.070;10.012;2023-04-22T03:27:48;100989.25;;;7.59;100.00
30421;BME280;17218;54.070;10.012;2023-04-22T03:30:14;100991.81;;;7.56;100.00
30421;BME280;17218;54.070;10.012;2023-04-22T03:32:41;100986.66;;;7.56;100.00
30421;BME280;17218;54.070;10.012;2023-04-22T03:35:08;100983.19;;;7.50;100.00
30421;BME280;17218;54.070;10.012;2023-04-22T03:37:34;100983.97;;;7.45;100.00
30421;BME280;17218;54.070;10.012;2023-04-22T03:40:03;100977.94;;;7.43;100.00
30421;BME280;17218;54.070;10.012;2023-04-22T03:42:30;100983.97;;;7.43;100.00
30421;BME280;17218;54.070;10.012;2023-04-22T03:44:57;100975.41;;;7.47;100.00
30421;BME280;17218;54.070;10.012;2023-04-22T03:47:23;100968.53;;;7.46;100.00
30421;BME280;17218;54.070;10.012;2023-04-22T03:49:50;100961.59;;;7.39;100.00
30421;BME280;17218;54.070;10.012;2023-04-22T03:52:16;100959.81;;;7.35;100.00
30421;BME280;17218;54.070;10.012;2023-04-22T03:54:43;100964.16;;;7.39;100.00
30421;BME280;17218;54.070;10.012;2023-04-22T03:57:10;100967.63;;;7.43;100.00
30421;BME280;17218;54.070;10.012;2023-04-22T03:59:37;100958.13;;;7.37;100.00
30421;BME280;17218;54.070;10.012;2023-04-22T04:02:04;100961.50;;;7.30;100.00
30421;BME280;17218;54.070;10.012;2023-04-22T04:04:31;100954.59;;;7.27;100.00
30421;BME280;17218;54.070;10.012;2023-04-22T04:06:59;100950.31;;;7.29;100.00
30421;BME280;17218;54.070;10.012;2023-04-22T04:09:25;100959.81;;;7.35;100.00
30421;BME280;17218;54.070;10.012;2023-04-22T04:11:52;100956.44;;;7.39;100.00
30421;BME280;17218;54.070;10.012;2023-04-22T04:14:20;100956.53;;;7.50;100.00
30421;BME280;17218;54.070;10.012;2023-04-22T04:16:47;100959.09;;;7.47;100.00
30421;BME280;17218;54.070;10.012;2023-04-22T04:19:13;100948.78;;;7.48;100.00
30421;BME280;17218;54.070;10.012;2023-04-22T04:21:40;100943.63;;;7.48;100.00
30421;BME280;17218;54.070;10.012;2023-04-22T04:24:07;100941.88;;;7.44;100.00
30421;BME280;17218;54.070;10.012;2023-04-22T04:26:34;100942.72;;;7.43;100.00
30421;BME280;17218;54.070;10.012;2023-04-22T04:29:00;100937.59;;;7.49;100.00
30421;BME280;17218;54.070;10.012;2023-04-22T04:31:28;100934.19;;;7.49;100.00
30421;BME280;17218;54.070;10.012;2023-04-22T04:33:55;100948.88;;;7.59;100.00
30421;BME280;17218;54.070;10.012;2023-04-22T04:36:22;100943.75;;;7.66;100.00
30421;BME280;17218;54.070;10.012;2023-04-22T04:38:50;100939.47;;;7.66;100.00
30421;BME280;17218;54.070;10.012;2023-04-22T04:41:16;100938.63;;;7.69;100.00
30421;BME280;17218;54.070;10.012;2023-04-22T04:43:45;100941.16;;;7.66;100.00
30421;BME280;17218;54.070;10.012;2023-04-22T04:46:12;100939.53;;;7.74;100.00
30421;BME280;17218;54.070;10.012;2023-04-22T04:48:40;100936.06;;;7.72;100.00
30421;BME280;17218;54.070;10.012;2023-04-22T04:51:08;100950.66;;;7.70;100.00
30421;BME280;17218;54.070;10.012;2023-04-22T04:53:35;100956.69;;;7.70;100.00
30421;BME280;17218;54.070;10.012;2023-04-22T04:56:02;100951.69;;;7.87;100.00
30421;BME280;17218;54.070;10.012;2023-04-22T04:58:29;100947.41;;;7.91;100.00
30421;BME280;17218;54.070;10.012;2023-04-22T05:00:55;100946.53;;;7.89;100.00
30421;BME280;17218;54.070;10.012;2023-04-22T05:03:22;100942.25;;;7.94;100.00
30421;BME280;17218;54.070;10.012;2023-04-22T05:05:50;100948.28;;;7.95;100.00
30421;BME280;17218;54.070;10.012;2023-04-22T05:08:17;100937.03;;;7.86;100.00
30421;BME280;17218;54.070;10.012;2023-04-22T05:10:43;100941.44;;;8.00;100.00
30421;BME280;17218;54.070;10.012;2023-04-22T05:13:10;100936.28;;;8.02;100.00
30421;BME280;17218;54.070;10.012;2023-04-22T05:15:36;100940.69;;;8.14;100.00
30421;BME280;17218;54.070;10.012;2023-04-22T05:18:03;100936.41;;;8.20;100.00
30421;BME280;17218;54.070;10.012;2023-04-22T05:20:30;100933.88;;;8.28;100.00
30421;BME280;17218;54.070;10.012;2023-04-22T05:22:58;100923.56;;;8.31;100.00
30421;BME280;17218;54.070;10.012;2023-04-22T05:25:24;100918.47;;;8.49;100.00
30421;BME280;17218;54.070;10.012;2023-04-22T05:27:51;100922.78;;;8.51;100.00
30421;BME280;17218;54.070;10.012;2023-04-22T05:30:18;100917.59;;;8.50;100.00
30421;BME280;17218;54.070;10.012;2023-04-22T05:32:44;100927.13;;;8.58;100.00
30421;BME280;17218;54.070;10.012;2023-04-22T05:35:11;100920.25;;;8.61;100.00
30421;BME280;17218;54.070;10.012;2023-04-22T05:37:37;100920.31;;;8.75;100.00
30421;BME280;17218;54.070;10.012;2023-04-22T05:40:08;100921.22;;;8.80;100.00
30421;BME280;17218;54.070;10.012;2023-04-22T05:42:34;100924.66;;;8.88;100.00
30421;BME280;17218;54.070;10.012;2023-04-22T05:45:01;100928.13;;;8.98;100.00
30421;BME280;17218;54.070;10.012;2023-04-22T05:47:28;100912.66;;;9.12;100.00
30421;BME280;17218;54.070;10.012;2023-04-22T05:49:55;100908.38;;;9.22;100.00
30421;BME280;17218;54.070;10.012;2023-04-22T05:52:21;100909.22;;;9.29;100.00
30421;BME280;17218;54.070;10.012;2023-04-22T05:54:48;100910.97;;;9.30;100.00
30421;BME280;17218;54.070;10.012;2023-04-22T05:57:16;100910.09;;;9.39;100.00
30421;BME280;17218;54.070;10.012;2023-04-22T05:59:42;100904.94;;;9.48;100.00
30421;BME280;17218;54.070;10.012;2023-04-22T06:02:09;100908.38;;;9.61;100.00
30421;BME280;17218;54.070;10.012;2023-04-22T06:04:35;100902.31;;;9.72;100.00
30421;BME280;17218;54.070;10.012;2023-04-22T06:07:02;100904.03;;;9.85;100.00
30421;BME280;17218;54.070;10.012;2023-04-22T06:09:29;100894.53;;;9.90;100.00
30421;BME280;17218;54.070;10.012;2023-04-22T06:12:04;100897.97;;;10.02;100.00
30421;BME280;17218;54.070;10.012;2023-04-22T06:14:33;100890.19;;;10.13;100.00
30421;BME280;17218;54.070;10.012;2023-04-22T06:16:59;100897.00;;;10.26;100.00
30421;BME280;17218;54.070;10.012;2023-04-22T06:19:26;100904.78;;;10.33;100.00
30421;BME280;17218;54.070;10.012;2023-04-22T06:21:53;100906.47;;;10.49;100.00
30421;BME280;17218;54.070;10.012;2023-04-22T06:24:21;100908.16;;;10.58;100.00
30421;BME280;17218;54.070;10.012;2023-04-22T06:26:48;100896.91;;;10.69;100.00
30421;BME280;17218;54.070;10.012;2023-04-22T06:29:14;100889.94;;;10.77;100.00
30421;BME280;17218;54.070;10.012;2023-04-22T06:31:42;100890.75;;;10.84;100.00
30421;BME280;17218;54.070;10.012;2023-04-22T06:34:09;100885.50;;;10.95;100.00
30421;BME280;17218;54.070;10.012;2023-04-22T06:36:35;100878.50;;;11.06;100.00
30421;BME280;17218;54.070;10.012;2023-04-22T06:39:02;100862.03;;;11.17;100.00
30421;BME280;17218;54.070;10.012;2023-04-22T06:41:29;100859.34;;;11.28;100.00
30421;BME280;17218;54.070;10.012;2023-04-22T06:43:56;100858.38;;;11.38;100.00
30421;BME280;17218;54.070;10.012;2023-04-22T06:46:23;100853.09;;;11.49;100.00
30421;BME280;17218;54.070;10.012;2023-04-22T06:48:51;100859.88;;;11.64;100.00
30421;BME280;17218;54.070;10.012;2023-04-22T06:51:18;100860.63;;;11.74;100.00
30421;BME280;17218;54.070;10.012;2023-04-22T06:53:45;100847.59;;;11.80;100.00
30421;BME280;17218;54.070;10.012;2023-04-22T06:56:11;100850.06;;;11.91;100.00
30421;BME280;17218;54.070;10.012;2023-04-22T06:58:38;100857.69;;;12.09;100.00
30421;BME280;17218;54.070;10.012;2023-04-22T07:01:05;100844.63;;;12.18;100.00
30421;BME280;17218;54.070;10.012;2023-04-22T07:03:31;100862.69;;;12.24;100.00
30421;BME280;17218;54.070;10.012;2023-04-22T07:05:59;100863.41;;;12.37;100.00
30421;BME280;17218;54.070;10.012;2023-04-22T07:08:26;100870.28;;;12.43;100.00
30421;BME280;17218;54.070;10.012;2023-04-22T07:10:52;100863.13;;;12.59;100.00
30421;BME280;17218;54.070;10.012;2023-04-22T07:13:19;100859.44;;;12.74;100.00
30421;BME280;17218;54.070;10.012;2023-04-22T07:15:45;100861.88;;;12.85;100.00
30421;BME280;17218;54.070;10.012;2023-04-22T07:18:12;100861.88;;;12.85;100.00
30421;BME280;17218;54.070;10.012;2023-04-22T07:20:38;100860.91;;;12.94;100.00
30421;BME280;17218;54.070;10.012;2023-04-22T07:23:06;100865.13;;;13.02;100.00
30421;BME280;17218;54.070;10.012;2023-04-22T07:25:33;100859.78;;;13.11;100.00
30421;BME280;17218;54.070;10.012;2023-04-22T07:27:59;100871.91;;;13.12;100.00
30421;BME280;17218;54.070;10.012;2023-04-22T07:30:26;100863.97;;;13.20;100.00
30421;BME280;17218;54.070;10.012;2023-04-22T07:32:52;100869.22;;;13.18;100.00
30421;BME280;17218;54.070;10.012;2023-04-22T07:35:19;100865.56;;;13.29;100.00
30421;BME280;17218;54.070;10.012;2023-04-22T07:37:46;100868.81;;;13.42;100.00
30421;BME280;17218;54.070;10.012;2023-04-22T07:40:14;100864.34;;;13.48;100.00
30421;BME280;17218;54.070;10.012;2023-04-22T07:42:41;100859.72;;;13.68;100.00
30421;BME280;17218;54.070;10.012;2023-04-22T07:45:07;100854.34;;;13.77;100.00
30421;BME280;17218;54.070;10.012;2023-04-22T07:47:34;100856.88;;;13.80;100.00
30421;BME280;17218;54.070;10.012;2023-04-22T07:50:00;100847.28;;;13.84;100.00
30421;BME280;17218;54.070;10.012;2023-04-22T07:52:27;100846.00;;;14.04;100.00
30421;BME280;17218;54.070;10.012;2023-04-22T07:54:54;100834.53;;;14.14;100.00
30421;BME280;17218;54.070;10.012;2023-04-22T07:57:22;100839.59;;;14.21;100.00
30421;BME280;17218;54.070;10.012;2023-04-22T07:59:48;100829.72;;;14.35;100.00
30421;BME280;17218;54.070;10.012;2023-04-22T08:02:15;100824.97;;;14.54;100.00
30421;BME280;17218;54.070;10.012;2023-04-22T08:04:41;100825.53;;;14.69;100.00
30421;BME280;17218;54.070;10.012;2023-04-22T08:07:08;100822.53;;;14.88;100.00
30421;BME280;17218;54.070;10.012;2023-04-22T08:09:35;100814.06;;;15.13;100.00
30421;BME280;17218;54.070;10.012;2023-04-22T08:12:01;100811.13;;;15.27;100.00
30421;BME280;17218;54.070;10.012;2023-04-22T08:14:29;100794.84;;;15.50;100.00
30421;BME280;17218;54.070;10.012;2023-04-22T08:16:56;100795.63;;;15.54;98.56
30421;BME280;17218;54.070;10.012;2023-04-22T08:19:22;100796.59;;;15.50;96.17
30421;BME280;17218;54.070;10.012;2023-04-22T08:21:49;100777.19;;;15.60;99.09
30421;BME280;17218;54.070;10.012;2023-04-22T08:24:15;100785.47;;;15.75;100.00
30421;BME280;17218;54.070;10.012;2023-04-22T08:26:42;100784.72;;;16.03;96.81
30421;BME280;17218;54.070;10.012;2023-04-22T08:29:09;100779.53;;;16.02;93.52
30421;BME280;17218;54.070;10.012;2023-04-22T08:31:37;100778.22;;;16.17;93.67
30421;BME280;17218;54.070;10.012;2023-04-22T08:34:03;100779.41;;;16.35;93.48
30421;BME280;17218;54.070;10.012;2023-04-22T08:36:30;100769.19;;;16.56;93.18
30421;BME280;17218;54.070;10.012;2023-04-22T08:38:57;100770.69;;;16.63;88.75
30421;BME280;17218;54.070;10.012;2023-04-22T08:41:24;100764.06;;;16.80;90.22
30421;BME280;17218;54.070;10.012;2023-04-22T08:43:52;100773.25;;;16.92;88.03
30421;BME280;17218;54.070;10.012;2023-04-22T08:46:18;100776.16;;;17.10;87.16
30421;BME280;17218;54.070;10.012;2023-04-22T08:48:47;100777.69;;;17.17;82.79
30421;BME280;17218;54.070;10.012;2023-04-22T08:51:14;100779.28;;;16.94;81.69
30421;BME280;17218;54.070;10.012;2023-04-22T08:53:42;100768.50;;;17.03;83.11
30421;BME280;17218;54.070;10.012;2023-04-22T08:56:09;100766.25;;;17.20;82.58
30421;BME280;17218;54.070;10.012;2023-04-22T08:58:37;100756.44;;;17.50;82.01
30421;BME280;17218;54.070;10.012;2023-04-22T09:01:04;100753.72;;;17.53;81.69
30421;BME280;17218;54.070;10.012;2023-04-22T09:03:30;100749.81;;;17.66;78.14
30421;BME280;17218;54.070;10.012;2023-04-22T09:06:00;100750.88;;;17.60;76.73
30421;BME280;17218;54.070;10.012;2023-04-22T09:08:29;100742.09;;;17.85;80.40
30421;BME280;17218;54.070;10.012;2023-04-22T09:10:56;100742.53;;;17.96;78.27
30421;BME280;17218;54.070;10.012;2023-04-22T09:13:24;100744.91;;;17.80;77.68
30421;BME280;17218;54.070;10.012;2023-04-22T09:15:51;100750.25;;;17.77;77.95
30421;BME280;17218;54.070;10.012;2023-04-22T09:18:18;100744.34;;;17.94;77.88
30421;BME280;17218;54.070;10.012;2023-04-22T09:20:46;100749.31;;;18.02;77.56
30421;BME280;17218;54.070;10.012;2023-04-22T09:23:14;100744.84;;;18.28;77.66
30421;BME280;17218;54.070;10.012;2023-04-22T09:25:41;100754.81;;;18.63;78.09
30421;BME280;17218;54.070;10.012;2023-04-22T09:28:11;100753.06;;;18.64;73.84
30421;BME280;17218;54.070;10.012;2023-04-22T09:30:38;100752.13;;;18.65;76.33
30421;BME280;17218;54.070;10.012;2023-04-22T09:33:05;100757.72;;;18.78;73.99
30421;BME280;17218;54.070;10.012;2023-04-22T09:35:34;100749.94;;;18.97;73.05
30421;BME280;17218;54.070;10.012;2023-04-22T09:38:02;100739.47;;;18.95;71.83
30421;BME280;17218;54.070;10.012;2023-04-22T09:40:31;100749.34;;;19.11;72.38
30421;BME280;17218;54.070;10.012;2023-04-22T09:43:00;100753.81;;;19.30;72.93
30421;BME280;17218;54.070;10.012;2023-04-22T09:45:30;100741.06;;;19.41;72.00
30421;BME280;17218;54.070;10.012;2023-04-22T09:47:59;100738.28;;;19.64;73.59
30421;BME280;17218;54.070;10.012;2023-04-22T09:50:27;100734.97;;;19.60;72.22
30421;BME280;17218;54.070;10.012;2023-04-22T09:52:55;100722.09;;;19.73;70.41
30421;BME280;17218;54.070;10.012;2023-04-22T09:55:23;100716.66;;;19.78;69.91
30421;BME280;17218;54.070;10.012;2023-04-22T09:57:53;100716.00;;;19.92;69.20
30421;BME280;17218;54.070;10.012;2023-04-22T10:00:21;100719.47;;;19.93;68.21
30421;BME280;17218;54.070;10.012;2023-04-22T10:02:48;100714.66;;;20.02;67.88
30421;BME280;17218;54.070;10.012;2023-04-22T10:05:14;100715.78;;;19.97;67.34
30421;BME280;17218;54.070;10.012;2023-04-22T10:07:43;100706.81;;;20.01;69.24
30421;BME280;17218;54.070;10.012;2023-04-22T10:10:09;100707.44;;;20.25;69.92
30421;BME280;17218;54.070;10.012;2023-04-22T10:12:36;100707.19;;;20.12;67.96
30421;BME280;17218;54.070;10.012;2023-04-22T10:15:05;100708.72;;;20.36;66.86
30421;BME280;17218;54.070;10.012;2023-04-22T10:17:34;100700.03;;;20.69;66.47
30421;BME280;17218;54.070;10.012;2023-04-22T10:20:03;100704.47;;;20.69;65.57
30421;BME280;17218;54.070;10.012;2023-04-22T10:22:33;100699.97;;;20.71;65.37
30421;BME280;17218;54.070;10.012;2023-04-22T10:25:00;100692.09;;;20.71;64.46
30421;BME280;17218;54.070;10.012;2023-04-22T10:27:27;100696.72;;;20.83;64.39
30421;BME280;17218;54.070;10.012;2023-04-22T10:29:55;100695.47;;;20.91;65.24
30421;BME280;17218;54.070;10.012;2023-04-22T10:32:26;100687.25;;;20.79;64.03
30421;BME280;17218;54.070;10.012;2023-04-22T10:35:10;100688.72;;;20.85;64.37
30421;BME280;17218;54.070;10.012;2023-04-22T10:37:41;100674.31;;;20.92;65.05
30421;BME280;17218;54.070;10.012;2023-04-22T10:40:11;100681.38;;;21.09;62.80
30421;BME280;17218;54.070;10.012;2023-04-22T10:42:41;100676.44;;;21.19;61.50
30421;BME280;17218;54.070;10.012;2023-04-22T10:45:12;100675.13;;;21.28;60.63
30421;BME280;17218;54.070;10.012;2023-04-22T10:47:41;100677.84;;;21.43;60.62
30421;BME280;17218;54.070;10.012;2023-04-22T10:50:12;100668.63;;;21.18;60.31
30421;BME280;17218;54.070;10.012;2023-04-22T10:52:40;100661.97;;;21.44;59.82
30421;BME280;17218;54.070;10.012;2023-04-22T10:55:07;100667.50;;;21.56;59.56
30421;BME280;17218;54.070;10.012;2023-04-22T10:57:38;100661.59;;;21.99;58.22
30421;BME280;17218;54.070;10.012;2023-04-22T11:00:25;100649.16;;;22.17;57.12
30421;BME280;17218;54.070;10.012;2023-04-22T11:03:06;100649.69;;;22.39;57.13
30421;BME280;17218;54.070;10.012;2023-04-22T11:05:33;100650.25;;;22.44;56.56
30421;BME280;17218;54.070;10.012;2023-04-22T11:08:02;100648.56;;;22.74;56.77
30421;BME280;17218;54.070;10.012;2023-04-22T11:10:34;100638.19;;;23.00;56.75
30421;BME280;17218;54.070;10.012;2023-04-22T11:13:01;100635.75;;;23.11;53.37
30421;BME280;17218;54.070;10.012;2023-04-22T11:15:31;100627.38;;;23.47;54.88
30421;BME280;17218;54.070;10.012;2023-04-22T11:17:59;100624.66;;;23.19;52.87
30421;BME280;17218;54.070;10.012;2023-04-22T11:20:27;100612.66;;;23.28;50.12
30421;BME280;17218;54.070;10.012;2023-04-22T11:22:55;100621.94;;;23.35;50.65
30421;BME280;17218;54.070;10.012;2023-04-22T11:25:23;100612.53;;;24.40;53.25
30421;BME280;17218;54.070;10.012;2023-04-22T11:27:51;100612.94;;;24.86;46.08
30421;BME280;17218;54.070;10.012;2023-04-22T11:30:19;100609.88;;;25.92;44.73
30421;BME280;17218;54.070;10.012;2023-04-22T11:32:50;100599.66;;;26.58;42.40
30421;BME280;17218;54.070;10.012;2023-04-22T11:35:20;100595.19;;;27.16;39.87
30421;BME280;17218;54.070;10.012;2023-04-22T11:37:48;100591.84;;;27.80;39.64
30421;BME280;17218;54.070;10.012;2023-04-22T11:40:17;100580.25;;;28.02;38.00
30421;BME280;17218;54.070;10.012;2023-04-22T11:42:44;100582.69;;;28.05;38.48
30421;BME280;17218;54.070;10.012;2023-04-22T11:45:11;100593.38;;;29.09;36.73
30421;BME280;17218;54.070;10.012;2023-04-22T11:47:39;100578.84;;;29.93;34.06
30421;BME280;17218;54.070;10.012;2023-04-22T11:50:07;100578.38;;;31.22;33.44
30421;BME280;17218;54.070;10.012;2023-04-22T11:52:48;100576.38;;;31.24;33.69
30421;BME280;17218;54.070;10.012;2023-04-22T11:55:16;100581.59;;;31.62;33.01
30421;BME280;17218;54.070;10.012;2023-04-22T11:57:44;100575.97;;;32.45;30.96
30421;BME280;17218;54.070;10.012;2023-04-22T12:00:13;100582.44;;;31.81;31.38
30421;BME280;17218;54.070;10.012;2023-04-22T12:02:42;100579.53;;;30.91;32.08
30421;BME280;17218;54.070;10.012;2023-04-22T12:05:10;100573.34;;;30.04;33.17
30421;BME280;17218;54.070;10.012;2023-04-22T12:07:37;100568.63;;;29.88;32.93
30421;BME280;17218;54.070;10.012;2023-04-22T12:10:06;100568.78;;;30.73;32.52
30421;BME280;17218;54.070;10.012;2023-04-22T12:12:33;100571.75;;;30.31;30.74
30421;BME280;17218;54.070;10.012;2023-04-22T12:15:11;100562.47;;;31.75;31.75
30421;BME280;17218;54.070;10.012;2023-04-22T12:17:39;100573.88;;;31.59;30.88
30421;BME280;17218;54.070;10.012;2023-04-22T12:20:10;100572.66;;;32.51;30.03
30421;BME280;17218;54.070;10.012;2023-04-22T12:22:36;100560.69;;;32.64;28.91
30421;BME280;17218;54.070;10.012;2023-04-22T12:25:04;100563.78;;;32.16;29.42
30421;BME280;17218;54.070;10.012;2023-04-22T12:27:32;100555.06;;;31.50;30.39
30421;BME280;17218;54.070;10.012;2023-04-22T12:29:58;100567.03;;;30.81;30.96
30421;BME280;17218;54.070;10.012;2023-04-22T12:32:25;100556.81;;;30.77;31.31
30421;BME280;17218;54.070;10.012;2023-04-22T12:34:52;100555.59;;;31.17;31.74
30421;BME280;17218;54.070;10.012;2023-04-22T12:37:19;100550.38;;;30.69;30.67
30421;BME280;17218;54.070;10.012;2023-04-22T12:39:45;100547.00;;;29.51;32.00
30421;BME280;17218;54.070;10.012;2023-04-22T12:42:12;100560.03;;;28.42;33.54